createdAt,value
2019-06-07T00:01:20.811Z,8.67
2019-06-07T00:03:47.929Z,8.33
2019-06-07T00:06:21.355Z,8.53
2019-06-07T00:08:45.103Z,9.47
2019-06-07T00:11:16.507Z,10.37
2019-06-07T00:13:42.066Z,8.70
2019-06-07T00:16:11.909Z,8.53
2019-06-07T00:18:38.948Z,8.37
2019-06-07T00:21:08.937Z,8.77
2019-06-07T00:23:35.888Z,7.97
2019-06-07T00:26:03.690Z,7.70
2019-06-07T00:28:31.417Z,7.10
2019-06-07T00:30:59.066Z,8.90
2019-06-07T00:33:26.605Z,7.47
2019-06-07T00:35:54.168Z,7.87
2019-06-07T00:38:22.081Z,7.50
2019-06-07T00:40:49.945Z,7.10
2019-06-07T00:43:20.373Z,8.00
2019-06-07T00:45:47.125Z,7.67
2019-06-07T00:48:19.656Z,8.60
2019-06-07T00:50:44.263Z,8.27
2019-06-07T00:53:17.176Z,8.10
2019-06-07T00:55:41.197Z,8.60
2019-06-07T00:58:08.887Z,7.90
2019-06-07T01:00:36.890Z,8.03
2019-06-07T01:03:04.523Z,9.20
2019-06-07T01:05:32.082Z,9.40
2019-06-07T01:08:01.603Z,8.37
2019-06-07T01:10:52.156Z,8.10
2019-06-07T01:12:58.682Z,7.90
2019-06-07T01:15:29.273Z,8.53
2019-06-07T01:18:33.572Z,9.47
2019-06-07T01:20:27.583Z,8.30
2019-06-07T01:22:55.118Z,8.03
2019-06-07T01:25:26.127Z,8.70
2019-06-07T01:27:52.582Z,9.07
2019-06-07T01:30:24.115Z,8.33
2019-06-07T01:32:51.698Z,9.33
2019-06-07T01:35:21.409Z,8.03
2019-06-07T01:37:48.871Z,8.53
2019-06-07T01:40:20.066Z,9.57
2019-06-07T01:42:47.324Z,9.60
2019-06-07T01:45:15.185Z,8.30
2019-06-07T01:47:42.686Z,8.83
2019-06-07T01:50:10.510Z,8.50
2019-06-07T01:52:38.089Z,8.40
2019-06-07T01:55:05.936Z,9.03
2019-06-07T01:57:45.420Z,8.10
2019-06-07T02:00:03.532Z,8.03
2019-06-07T02:02:32.272Z,8.80
2019-06-07T02:04:59.909Z,9.23
2019-06-07T02:07:32.178Z,7.97
2019-06-07T02:09:56.972Z,8.23
2019-06-07T02:12:32.522Z,7.70
2019-06-07T02:14:53.822Z,8.03
2019-06-07T02:17:24.406Z,8.00
2019-06-07T02:19:50.755Z,7.97
2019-06-07T02:22:21.316Z,7.80
2019-06-07T02:25:33.889Z,9.43
2019-06-07T02:27:18.526Z,7.33
2019-06-07T02:29:45.983Z,9.23
2019-06-07T02:32:13.435Z,8.63
2019-06-07T02:34:40.956Z,9.13
2019-06-07T02:37:08.472Z,8.10
2019-06-07T02:39:40.242Z,7.63
2019-06-07T02:42:05.387Z,8.43
2019-06-07T02:44:38.536Z,9.73
2019-06-07T02:47:02.363Z,9.33
2019-06-07T02:49:36.245Z,11.00
2019-06-07T02:51:59.146Z,9.33
2019-06-07T02:54:27.454Z,8.57
2019-06-07T02:56:58.992Z,9.10
2019-06-07T02:59:52.779Z,8.97
2019-06-07T03:01:55.021Z,9.00
2019-06-07T03:04:27.182Z,8.10
2019-06-07T03:06:56.349Z,9.10
2019-06-07T03:09:26.219Z,7.60
2019-06-07T03:11:56.220Z,8.30
2019-06-07T03:14:26.006Z,7.57
2019-06-07T03:17:01.760Z,7.47
2019-06-07T03:19:37.898Z,8.50
2019-06-07T03:22:05.166Z,8.50
2019-06-07T03:24:36.251Z,9.53
2019-06-07T03:29:36.561Z,9.40
2019-06-07T03:32:03.676Z,9.60
2019-06-07T03:34:34.214Z,11.40
2019-06-07T03:37:00.500Z,9.90
2019-06-07T03:39:29.290Z,9.40
2019-06-07T03:42:06.226Z,9.20
2019-06-07T03:44:28.633Z,8.30
2019-06-07T03:46:56.064Z,10.63
2019-06-07T03:49:24.036Z,10.27
2019-06-07T03:51:51.536Z,10.13
2019-06-07T03:54:18.960Z,9.67
2019-06-07T03:56:46.445Z,9.20
2019-06-07T03:59:13.886Z,10.97
2019-06-07T04:01:41.441Z,9.13
2019-06-07T04:04:08.933Z,10.13
2019-06-07T04:06:39.479Z,9.93
2019-06-07T04:09:06.673Z,9.40
2019-06-07T04:11:35.133Z,10.03
2019-06-07T04:14:03.754Z,9.97
2019-06-07T04:16:34.560Z,9.53
2019-06-07T04:19:00.689Z,8.87
2019-06-07T04:21:29.754Z,9.00
2019-06-07T04:23:57.607Z,10.07
2019-06-07T04:26:25.320Z,9.70
2019-06-07T04:29:31.475Z,9.10
2019-06-07T04:31:22.638Z,9.37
2019-06-07T04:33:50.099Z,9.10
2019-06-07T04:36:18.172Z,9.20
2019-06-07T04:38:47.053Z,9.50
2019-06-07T04:41:16.236Z,9.00
2019-06-07T04:43:45.818Z,8.97
2019-06-07T04:46:16.773Z,8.80
2019-06-07T04:48:46.040Z,10.00
2019-06-07T04:51:14.103Z,10.60
2019-06-07T04:53:43.352Z,10.47
2019-06-07T04:56:12.293Z,9.60
2019-06-07T04:58:49.138Z,9.00
2019-06-07T05:01:27.305Z,8.83
2019-06-07T05:03:46.523Z,9.23
2019-06-07T05:06:14.158Z,9.20
2019-06-07T05:08:43.558Z,9.60
2019-06-07T05:11:11.262Z,9.33
2019-06-07T05:13:41.438Z,8.83
2019-06-07T05:16:08.247Z,9.00
2019-06-07T05:18:39.642Z,8.50
2019-06-07T05:21:05.112Z,8.40
2019-06-07T05:26:02.111Z,8.80
2019-06-07T05:28:30.035Z,8.40
2019-06-07T05:31:04.638Z,8.17
2019-06-07T05:33:28.348Z,7.47
2019-06-07T05:35:56.046Z,7.53
2019-06-07T05:38:23.526Z,7.70
2019-06-07T05:40:51.744Z,7.80
2019-06-07T05:43:26.852Z,6.50
2019-06-07T05:45:54.395Z,7.40
2019-06-07T05:48:23.261Z,7.27
2019-06-07T05:50:57.061Z,7.07
2019-06-07T05:53:20.273Z,8.37
2019-06-07T05:55:47.943Z,7.07
2019-06-07T05:58:15.498Z,8.23
2019-06-07T06:00:44.576Z,7.03
2019-06-07T06:03:12.555Z,6.60
2019-06-07T06:05:45.767Z,6.30
2019-06-07T06:08:09.580Z,6.97
2019-06-07T06:10:39.630Z,6.60
2019-06-07T06:13:07.594Z,6.10
2019-06-07T06:15:45.320Z,6.53
2019-06-07T06:18:05.292Z,6.00
2019-06-07T06:20:47.703Z,5.00
2019-06-07T06:23:02.384Z,5.13
2019-06-07T06:25:33.184Z,5.37
2019-06-07T06:28:12.426Z,4.97
2019-06-07T06:30:28.932Z,4.20
2019-06-07T06:32:58.540Z,3.70
2019-06-07T06:35:25.774Z,4.20
2019-06-07T06:37:53.619Z,3.23
2019-06-07T06:40:23.311Z,4.47
2019-06-07T06:42:50.798Z,3.40
2019-06-07T06:45:18.427Z,3.80
2019-06-07T06:47:48.836Z,4.23
2019-06-07T06:50:15.872Z,4.00
2019-06-07T06:52:46.099Z,3.47
2019-06-07T06:55:13.171Z,4.00
2019-06-07T06:57:41.809Z,3.87
2019-06-07T07:00:10.209Z,4.20
2019-06-07T07:03:27.033Z,3.43
2019-06-07T07:05:08.937Z,3.90
2019-06-07T07:07:36.708Z,4.27
2019-06-07T07:10:06.622Z,4.27
2019-06-07T07:12:35.492Z,2.50
2019-06-07T07:15:04.507Z,3.77
2019-06-07T07:17:50.814Z,3.13
2019-06-07T07:20:01.700Z,3.90
2019-06-07T07:22:29.488Z,3.70
2019-06-07T07:25:00.165Z,3.70
2019-06-07T07:27:27.785Z,3.80
2019-06-07T07:30:34.258Z,3.47
2019-06-07T07:32:25.857Z,3.13
2019-06-07T07:35:00.009Z,3.77
2019-06-07T07:37:23.028Z,3.93
2019-06-07T07:39:54.263Z,3.53
2019-06-07T07:42:21.723Z,5.20
2019-06-07T07:44:53.275Z,3.93
2019-06-07T07:47:18.986Z,4.10
2019-06-07T07:49:48.360Z,4.30
2019-06-07T07:52:16.091Z,4.03
2019-06-07T07:54:44.278Z,3.20
2019-06-07T07:57:11.877Z,4.00
2019-06-07T07:59:44.034Z,3.80
2019-06-07T08:02:08.812Z,3.83
2019-06-07T08:05:12.873Z,4.20
2019-06-07T08:07:05.986Z,3.57
2019-06-07T08:09:33.545Z,3.57
2019-06-07T08:12:02.661Z,3.70
2019-06-07T08:14:31.318Z,3.50
2019-06-07T08:16:59.295Z,3.60
2019-06-07T08:19:27.215Z,2.60
2019-06-07T08:21:55.688Z,3.00
2019-06-07T08:24:23.312Z,2.30
2019-06-07T08:27:12.510Z,3.03
2019-06-07T08:29:20.170Z,2.43
2019-06-07T08:31:48.306Z,2.73
2019-06-07T08:34:16.141Z,2.87
2019-06-07T08:36:43.697Z,2.60
2019-06-07T08:39:11.234Z,2.90
2019-06-07T08:41:53.497Z,2.70
2019-06-07T08:44:22.770Z,3.10
2019-06-07T08:46:37.903Z,2.50
2019-06-07T08:49:05.514Z,2.90
2019-06-07T08:51:33.122Z,2.80
2019-06-07T08:54:21.088Z,7.83
2019-06-07T08:56:30.302Z,2.47
2019-06-07T08:59:03.170Z,3.40
2019-06-07T09:01:27.453Z,3.10
2019-06-07T09:04:00.177Z,2.93
2019-06-07T09:07:01.888Z,2.83
2019-06-07T09:08:57.765Z,2.67
2019-06-07T09:11:24.775Z,2.47
2019-06-07T09:13:54.528Z,3.03
2019-06-07T09:16:22.164Z,3.03
2019-06-07T09:18:49.675Z,2.80
2019-06-07T09:21:17.276Z,2.67
2019-06-07T09:23:44.794Z,2.93
2019-06-07T09:26:18.270Z,3.20
2019-06-07T09:28:42.484Z,1.93
2019-06-07T09:31:12.490Z,2.57
2019-06-07T09:33:39.777Z,2.87
2019-06-07T09:36:12.347Z,2.20
2019-06-07T09:38:36.956Z,2.07
2019-06-07T09:41:06.170Z,2.50
2019-06-07T09:46:09.684Z,3.00
2019-06-07T09:49:12.261Z,2.50
2019-06-07T09:51:09.767Z,2.20
2019-06-07T09:53:32.053Z,2.37
2019-06-07T09:56:05.658Z,2.60
2019-06-07T09:58:51.074Z,1.87
2019-06-07T10:01:04.467Z,1.70
2019-06-07T10:03:30.146Z,2.43
2019-06-07T10:05:57.971Z,1.73
2019-06-07T10:09:42.410Z,2.20
2019-06-07T10:10:58.458Z,2.40
2019-06-07T10:13:26.030Z,2.00
2019-06-07T10:15:54.738Z,2.37
2019-06-07T10:18:22.238Z,2.60
2019-06-07T10:20:49.810Z,2.10
2019-06-07T10:23:17.272Z,1.50
2019-06-07T10:25:44.869Z,2.40
2019-06-07T10:28:12.380Z,2.50
2019-06-07T10:30:39.969Z,2.40
2019-06-07T10:33:08.580Z,2.10
2019-06-07T10:35:36.404Z,2.40
2019-06-07T10:38:04.585Z,2.50
2019-06-07T10:40:33.408Z,2.17
2019-06-07T10:43:01.261Z,1.70
2019-06-07T10:45:29.010Z,2.20
2019-06-07T10:47:56.598Z,2.43
2019-06-07T10:50:24.276Z,2.63
2019-06-07T10:52:51.870Z,2.40
2019-06-07T10:55:19.453Z,2.77
2019-06-07T10:57:46.988Z,2.17
2019-06-07T11:00:15.419Z,2.50
2019-06-07T11:02:42.978Z,2.83
2019-06-07T11:05:12.285Z,2.07
2019-06-07T11:07:40.411Z,2.37
2019-06-07T11:10:14.988Z,2.47
2019-06-07T11:12:37.742Z,2.90
2019-06-07T11:15:06.623Z,3.30
2019-06-07T11:17:34.438Z,2.77
2019-06-07T11:20:02.239Z,2.37
2019-06-07T11:22:30.025Z,2.27
2019-06-07T11:24:57.619Z,2.73
2019-06-07T11:27:25.135Z,2.53
2019-06-07T11:29:52.651Z,2.40
2019-06-07T11:32:23.045Z,2.47
2019-06-07T11:34:50.555Z,2.80
2019-06-07T11:37:19.149Z,3.23
2019-06-07T11:39:46.726Z,2.80
2019-06-07T11:42:14.284Z,2.20
2019-06-07T11:44:55.749Z,2.60
2019-06-07T11:47:12.466Z,2.97
2019-06-07T11:49:40.276Z,2.90
2019-06-07T11:52:07.758Z,2.40
2019-06-07T11:54:35.296Z,2.47
2019-06-07T11:57:04.170Z,2.60
2019-06-07T11:59:31.755Z,2.90
2019-06-07T12:01:59.222Z,2.60
2019-06-07T12:04:34.524Z,2.83
2019-06-07T12:06:57.285Z,3.27
2019-06-07T12:09:27.969Z,2.60
2019-06-07T12:11:54.262Z,2.90
2019-06-07T12:14:21.826Z,2.60
2019-06-07T12:16:51.361Z,2.87
2019-06-07T12:19:19.802Z,2.73
2019-06-07T12:21:47.573Z,2.80
2019-06-07T12:24:16.154Z,3.07
2019-06-07T12:26:44.240Z,3.33
2019-06-07T12:29:12.814Z,3.30
2019-06-07T12:31:40.537Z,3.47
2019-06-07T12:34:08.023Z,2.87
2019-06-07T12:36:35.631Z,3.73
2019-06-07T12:39:05.717Z,3.10
2019-06-07T12:41:33.398Z,3.07
2019-06-07T12:44:00.882Z,2.43
2019-06-07T12:46:28.772Z,3.17
2019-06-07T12:48:56.291Z,2.50
2019-06-07T12:51:23.829Z,2.27
2019-06-07T12:53:51.303Z,2.60
2019-06-07T12:56:19.804Z,3.00
2019-06-07T12:58:47.327Z,2.83
2019-06-07T13:01:15.948Z,2.83
2019-06-07T13:03:43.565Z,3.10
2019-06-07T13:06:11.535Z,2.97
2019-06-07T13:08:39.084Z,2.47
2019-06-07T13:11:16.095Z,2.70
2019-06-07T13:13:36.164Z,3.00
2019-06-07T13:16:03.843Z,2.67
2019-06-07T13:18:31.604Z,2.37
2019-06-07T13:20:59.088Z,2.57
2019-06-07T13:23:29.005Z,3.40
2019-06-07T13:25:56.761Z,2.90
2019-06-07T13:28:24.736Z,2.53
2019-06-07T13:30:52.414Z,2.90
2019-06-07T13:33:21.516Z,3.23
2019-06-07T13:35:49.406Z,3.00
2019-06-07T13:38:26.355Z,2.97
2019-06-07T13:40:57.423Z,2.90
2019-06-07T13:43:25.762Z,3.37
2019-06-07T13:45:53.421Z,2.83
2019-06-07T13:48:21.179Z,2.93
2019-06-07T13:50:48.821Z,2.53
2019-06-07T13:53:16.385Z,2.80
2019-06-07T13:55:43.953Z,2.80
2019-06-07T13:58:11.607Z,3.00
2019-06-07T14:00:39.104Z,2.60
2019-06-07T14:03:06.714Z,2.70
2019-06-07T14:05:34.223Z,2.47
2019-06-07T14:08:01.676Z,3.70
2019-06-07T14:10:29.625Z,2.73
2019-06-07T14:12:57.190Z,2.93
2019-06-07T14:15:25.186Z,2.60
2019-06-07T14:17:54.024Z,2.90
2019-06-07T14:20:26.664Z,3.00
2019-06-07T14:22:54.277Z,3.00
2019-06-07T14:25:23.054Z,2.50
2019-06-07T14:27:50.766Z,2.50
2019-06-07T14:30:21.804Z,3.00
2019-06-07T14:32:50.545Z,2.57
2019-06-07T14:35:18.578Z,3.07
2019-06-07T14:37:46.547Z,2.80
2019-06-07T14:40:14.671Z,2.87
2019-06-07T14:42:42.263Z,2.57
2019-06-07T14:45:10.439Z,2.50
2019-06-07T14:47:39.017Z,2.50
2019-06-07T14:50:06.869Z,3.17
2019-06-07T14:52:35.122Z,2.87
2019-06-07T14:55:04.286Z,2.83
2019-06-07T14:57:33.353Z,2.60
2019-06-07T15:00:10.408Z,2.60
2019-06-07T15:02:34.382Z,2.50
2019-06-07T15:05:00.337Z,2.90
2019-06-07T15:07:28.658Z,2.40
2019-06-07T15:09:56.434Z,2.53
2019-06-07T15:12:25.345Z,2.23
2019-06-07T15:14:53.526Z,2.50
2019-06-07T15:17:20.982Z,3.20
2019-06-07T15:19:49.609Z,2.60
2019-06-07T15:22:17.265Z,2.10
2019-06-07T15:24:44.926Z,1.90
2019-06-07T15:27:12.528Z,2.90
2019-06-07T15:29:40.032Z,2.67
2019-06-07T15:32:07.539Z,2.50
2019-06-07T15:34:36.339Z,2.10
2019-06-07T15:37:03.974Z,2.53
2019-06-07T15:39:32.573Z,2.50
2019-06-07T15:42:00.299Z,3.00
2019-06-07T15:44:29.094Z,2.27
2019-06-07T15:46:59.006Z,2.20
2019-06-07T15:49:26.504Z,2.40
2019-06-07T15:51:54.142Z,2.53
2019-06-07T15:54:21.853Z,2.53
2019-06-07T15:56:49.450Z,3.33
2019-06-07T15:59:17.053Z,2.57
2019-06-07T16:01:44.673Z,2.40
2019-06-07T16:04:12.270Z,2.97
2019-06-07T16:06:40.582Z,2.33
2019-06-07T16:09:08.253Z,2.30
2019-06-07T16:11:38.912Z,2.60
2019-06-07T16:14:06.640Z,2.10
2019-06-07T16:16:35.027Z,2.83
2019-06-07T16:19:02.742Z,3.17
2019-06-07T16:21:30.241Z,3.03
2019-06-07T16:23:57.927Z,2.70
2019-06-07T16:26:25.507Z,2.47
2019-06-07T16:28:52.951Z,2.93
2019-06-07T16:31:20.403Z,2.73
2019-06-07T16:33:47.915Z,2.20
2019-06-07T16:36:15.330Z,2.70
2019-06-07T16:38:42.906Z,2.70
2019-06-07T16:41:10.348Z,3.47
2019-06-07T16:43:38.555Z,3.20
2019-06-07T16:46:06.260Z,3.20
2019-06-07T16:48:36.858Z,2.97
2019-06-07T16:51:04.353Z,2.80
2019-06-07T16:53:31.903Z,2.80
2019-06-07T16:55:59.386Z,2.70
2019-06-07T16:58:26.909Z,2.97
2019-06-07T17:00:54.462Z,3.10
2019-06-07T17:03:21.998Z,3.30
2019-06-07T17:05:50.578Z,3.37
2019-06-07T17:08:18.514Z,3.40
2019-06-07T17:10:46.413Z,3.87
2019-06-07T17:13:13.997Z,4.73
2019-06-07T17:15:42.686Z,6.93
2019-06-07T17:18:10.390Z,5.50
2019-06-07T17:20:39.016Z,5.80
2019-06-07T17:23:06.675Z,5.40
2019-06-07T17:25:34.323Z,5.60
2019-06-07T17:28:01.862Z,5.23
2019-06-07T17:30:29.670Z,4.90
2019-06-07T17:32:59.429Z,3.90
2019-06-07T17:35:26.787Z,4.00
2019-06-07T17:37:54.284Z,4.77
2019-06-07T17:40:21.952Z,3.80
2019-06-07T17:42:50.900Z,3.70
2019-06-07T17:45:18.807Z,3.30
2019-06-07T17:47:47.695Z,2.90
2019-06-07T17:50:15.580Z,2.80
2019-06-07T17:52:43.791Z,1.93
2019-06-07T17:55:11.974Z,1.60
2019-06-07T17:57:39.704Z,1.40
2019-06-07T18:00:27.661Z,1.80
2019-06-07T18:02:38.060Z,2.30
2019-06-07T18:05:05.807Z,1.83
2019-06-07T18:07:34.519Z,2.03
2019-06-07T18:10:02.511Z,1.90
2019-06-07T18:12:30.435Z,2.20
2019-06-07T18:14:59.131Z,3.10
2019-06-07T18:17:34.561Z,1.63
2019-06-07T18:19:56.280Z,1.30
2019-06-07T18:22:23.897Z,2.03
2019-06-07T18:24:52.712Z,1.17
2019-06-07T18:27:20.551Z,1.27
2019-06-07T18:29:48.584Z,1.10
2019-06-07T18:32:16.239Z,1.53
2019-06-07T18:34:43.725Z,1.60
2019-06-07T18:37:11.366Z,1.10
2019-06-07T18:39:39.068Z,1.30
2019-06-07T18:42:06.711Z,1.03
2019-06-07T18:44:34.220Z,0.80
2019-06-07T18:47:01.699Z,0.90
2019-06-07T18:49:29.380Z,1.20
2019-06-07T18:52:16.456Z,0.77
2019-06-07T18:54:44.021Z,0.97
2019-06-07T18:57:12.451Z,0.80
2019-06-07T18:59:40.191Z,0.70
2019-06-07T19:02:07.840Z,1.83
2019-06-07T19:04:35.550Z,0.80
2019-06-07T19:07:03.283Z,0.63
2019-06-07T19:09:30.877Z,0.90
2019-06-07T19:11:59.034Z,0.87
2019-06-07T19:14:36.600Z,0.80
2019-06-07T19:16:57.557Z,0.90
2019-06-07T19:19:25.336Z,0.70
2019-06-07T19:21:54.007Z,0.70
2019-06-07T19:24:22.189Z,0.80
2019-06-07T19:26:50.549Z,1.07
2019-06-07T19:29:18.257Z,0.83
2019-06-07T19:31:45.866Z,0.67
2019-06-07T19:34:13.439Z,0.80
2019-06-07T19:36:48.716Z,0.50
2019-06-07T19:39:10.664Z,1.00
2019-06-07T19:41:41.274Z,0.70
2019-06-07T19:44:09.045Z,0.50
2019-06-07T19:46:36.622Z,0.50
2019-06-07T19:49:04.581Z,0.70
2019-06-07T19:51:32.150Z,0.47
2019-06-07T19:53:59.741Z,0.63
2019-06-07T19:56:27.417Z,1.10
2019-06-07T19:58:55.543Z,0.50
2019-06-07T20:01:23.280Z,0.67
2019-06-07T20:03:50.826Z,0.50
2019-06-07T20:06:18.505Z,0.50
2019-06-07T20:08:46.233Z,0.50
2019-06-07T20:11:45.638Z,0.60
2019-06-07T20:14:16.394Z,0.57
2019-06-07T20:16:44.099Z,0.80
2019-06-07T20:19:11.809Z,0.43
2019-06-07T20:21:39.402Z,0.50
2019-06-07T20:24:25.947Z,0.70
2019-06-07T20:26:36.370Z,0.83
2019-06-07T20:29:04.116Z,1.33
2019-06-07T20:31:31.901Z,0.83
2019-06-07T20:34:00.601Z,0.47
2019-06-07T20:36:28.345Z,0.93
2019-06-07T20:38:55.966Z,0.67
2019-06-07T20:41:23.564Z,0.70
2019-06-07T20:43:51.018Z,0.80
2019-06-07T20:46:18.645Z,0.70
2019-06-07T20:48:46.369Z,0.70
2019-06-07T20:51:14.019Z,0.43
2019-06-07T20:53:41.617Z,0.80
2019-06-07T20:56:09.358Z,0.67
2019-06-07T20:58:37.025Z,0.60
2019-06-07T21:01:04.858Z,0.57
2019-06-07T21:03:32.396Z,0.70
2019-06-07T21:06:01.268Z,1.17
2019-06-07T21:08:29.007Z,1.10
2019-06-07T21:10:56.619Z,1.00
2019-06-07T21:13:24.277Z,0.60
2019-06-07T21:15:51.951Z,0.70
2019-06-07T21:18:20.202Z,0.77
2019-06-07T21:20:47.931Z,0.77
2019-06-07T21:23:15.490Z,0.87
2019-06-07T21:25:42.952Z,0.60
2019-06-07T21:28:11.444Z,0.70
2019-06-07T21:30:39.237Z,1.07
2019-06-07T21:33:07.645Z,0.70
2019-06-07T21:35:35.434Z,0.60
2019-06-07T21:38:03.929Z,0.73
2019-06-07T21:40:31.799Z,0.63
2019-06-07T21:42:59.680Z,0.60
2019-06-07T21:45:27.340Z,0.80
2019-06-07T21:47:54.904Z,0.57
2019-06-07T21:50:22.563Z,1.20
2019-06-07T21:52:50.203Z,0.87
2019-06-07T21:55:19.027Z,0.80
2019-06-07T21:57:46.702Z,0.60
2019-06-07T22:00:16.829Z,0.50
2019-06-07T22:02:46.437Z,1.10
2019-06-07T22:05:14.442Z,1.60
2019-06-07T22:07:42.114Z,1.27
2019-06-07T22:10:10.117Z,0.67
2019-06-07T22:12:38.239Z,0.77
2019-06-07T22:15:24.701Z,1.30
2019-06-07T22:17:36.051Z,3.57
2019-06-07T22:20:06.376Z,1.00
2019-06-07T22:22:34.206Z,1.10
2019-06-07T22:25:01.731Z,0.73
2019-06-07T22:27:29.509Z,1.50
2019-06-07T22:29:57.035Z,1.00
2019-06-07T22:32:24.720Z,1.40
2019-06-07T22:34:52.353Z,1.03
2019-06-07T22:37:23.433Z,0.97
2019-06-07T22:39:49.356Z,0.70
2019-06-07T22:42:16.919Z,0.70
2019-06-07T22:44:44.509Z,1.07
2019-06-07T22:47:12.124Z,1.20
2019-06-07T22:49:39.934Z,0.80
2019-06-07T22:52:09.381Z,0.77
2019-06-07T22:54:36.798Z,1.07
2019-06-07T22:57:11.892Z,0.90
2019-06-07T22:59:39.646Z,1.03
2019-06-07T23:02:08.338Z,1.30
2019-06-07T23:04:36.971Z,0.83
2019-06-07T23:07:04.473Z,1.20
2019-06-07T23:09:32.434Z,0.87
2019-06-07T23:12:00.114Z,1.13
2019-06-07T23:14:28.073Z,1.20
2019-06-07T23:16:56.355Z,1.00
2019-06-07T23:19:24.195Z,0.80
2019-06-07T23:21:51.946Z,0.80
2019-06-07T23:24:20.141Z,1.07
2019-06-07T23:26:50.128Z,1.00
2019-06-07T23:29:18.639Z,0.70
2019-06-07T23:31:46.313Z,0.90
2019-06-07T23:34:14.706Z,1.20
2019-06-07T23:36:43.187Z,1.10
2019-06-07T23:39:10.923Z,1.03
2019-06-07T23:41:39.792Z,0.87
2019-06-07T23:44:07.363Z,0.90
2019-06-07T23:46:34.858Z,0.70
2019-06-07T23:49:02.351Z,1.93
2019-06-07T23:51:29.845Z,1.37
2019-06-07T23:53:57.307Z,0.93
2019-06-07T23:56:24.785Z,1.00
2019-06-07T23:58:52.448Z,0.80
